createdAt,value
2018-09-27T00:04:52.238Z,2.73
2018-09-27T00:10:56.737Z,2.47
2018-09-27T00:17:01.793Z,3.20
2018-09-27T00:23:05.737Z,2.70
2018-09-27T00:29:09.866Z,3.20
2018-09-27T00:35:14.798Z,3.30
2018-09-27T00:41:18.650Z,3.10
2018-09-27T00:47:23.102Z,3.23
2018-09-27T00:53:27.135Z,4.07
2018-09-27T00:59:32.252Z,5.03
2018-09-27T01:05:36.849Z,4.10
2018-09-27T01:11:40.760Z,3.50
2018-09-27T01:17:45.400Z,3.60
2018-09-27T01:23:49.477Z,3.90
2018-09-27T01:29:54.699Z,2.93
2018-09-27T01:35:58.313Z,3.37
2018-09-27T01:42:02.011Z,3.47
2018-09-27T01:48:05.574Z,3.07
2018-09-27T01:54:10.149Z,3.33
2018-09-27T02:00:14.506Z,3.53
2018-09-27T02:06:18.856Z,3.50
2018-09-27T02:12:22.361Z,3.30
2018-09-27T02:18:26.318Z,3.80
2018-09-27T02:24:29.998Z,3.60
2018-09-27T02:30:34.470Z,4.10
2018-09-27T02:36:38.857Z,3.80
2018-09-27T02:42:42.454Z,4.33
2018-09-27T02:48:46.798Z,3.40
2018-09-27T02:54:51.249Z,3.17
2018-09-27T03:00:55.635Z,3.37
2018-09-27T03:06:59.739Z,3.93
2018-09-27T03:13:04.352Z,3.47
2018-09-27T03:19:07.950Z,3.27
2018-09-27T03:25:11.647Z,3.13
2018-09-27T03:31:15.206Z,2.90
2018-09-27T03:37:19.385Z,3.30
2018-09-27T03:43:23.530Z,3.23
2018-09-27T03:49:27.201Z,3.73
2018-09-27T03:55:31.654Z,3.30
2018-09-27T04:01:35.637Z,3.10
2018-09-27T04:07:39.530Z,3.07
2018-09-27T04:13:43.276Z,3.57
2018-09-27T04:19:47.640Z,3.37
2018-09-27T04:25:52.191Z,3.57
2018-09-27T04:31:55.851Z,3.00
2018-09-27T04:38:00.032Z,3.53
2018-09-27T04:44:03.752Z,3.80
2018-09-27T04:50:07.306Z,3.57
2018-09-27T04:56:11.577Z,4.43
2018-09-27T05:02:16.453Z,5.00
2018-09-27T05:08:21.921Z,5.57
2018-09-27T05:14:26.364Z,5.43
2018-09-27T05:20:30.598Z,6.23
2018-09-27T05:26:34.087Z,7.10
2018-09-27T05:32:38.819Z,6.10
2018-09-27T05:38:43.790Z,5.37
2018-09-27T05:44:48.358Z,4.77
2018-09-27T05:50:53.855Z,5.83
2018-09-27T05:56:58.309Z,5.80
2018-09-27T06:03:07.005Z,4.93
2018-09-27T06:09:12.393Z,3.80
2018-09-27T06:15:18.462Z,5.80
2018-09-27T06:21:22.757Z,5.00
2018-09-27T06:27:27.695Z,6.90
2018-09-27T06:33:32.303Z,4.83
2018-09-27T06:39:36.131Z,4.97
2018-09-27T06:45:41.110Z,4.80
2018-09-27T06:51:45.344Z,5.57
2018-09-27T06:57:49.999Z,4.27
2018-09-27T07:03:54.853Z,3.57
2018-09-27T07:09:59.278Z,3.67
2018-09-27T07:16:09.777Z,4.77
2018-09-27T07:22:14.086Z,3.17
2018-09-27T07:28:17.843Z,3.00
2018-09-27T07:34:21.372Z,3.27
2018-09-27T07:40:25.441Z,2.80
2018-09-27T07:46:29.884Z,2.87
2018-09-27T07:52:34.169Z,2.80
2018-09-27T07:58:38.439Z,3.60
2018-09-27T08:04:42.030Z,3.67
2018-09-27T08:10:45.895Z,3.40
2018-09-27T08:16:49.622Z,4.07
2018-09-27T08:22:53.279Z,4.50
2018-09-27T08:28:56.802Z,3.73
2018-09-27T08:35:02.074Z,3.70
2018-09-27T08:41:06.333Z,4.27
2018-09-27T08:47:10.189Z,4.70
2018-09-27T08:53:13.951Z,4.90
2018-09-27T08:59:18.810Z,4.33
2018-09-27T09:05:22.482Z,4.93
2018-09-27T09:11:26.378Z,4.47
2018-09-27T09:17:29.966Z,5.30
2018-09-27T09:23:34.216Z,5.40
2018-09-27T09:29:38.832Z,6.37
2018-09-27T09:35:43.013Z,6.83
2018-09-27T09:41:47.011Z,6.43
2018-09-27T09:47:51.065Z,7.20
2018-09-27T09:53:54.952Z,7.33
2018-09-27T09:59:59.185Z,6.87
2018-09-27T10:06:02.787Z,7.13
2018-09-27T10:12:06.524Z,8.17
2018-09-27T10:18:10.583Z,7.87
2018-09-27T10:24:16.011Z,7.53
2018-09-27T10:30:24.866Z,8.43
2018-09-27T10:36:28.794Z,6.97
2018-09-27T10:42:34.200Z,6.63
2018-09-27T10:48:37.914Z,7.03
2018-09-27T10:54:42.373Z,7.37
2018-09-27T11:00:46.201Z,9.13
2018-09-27T11:06:50.467Z,8.00
2018-09-27T11:12:54.683Z,6.30
2018-09-27T11:18:58.418Z,8.47
2018-09-27T11:25:03.561Z,6.10
2018-09-27T11:31:13.060Z,6.53
2018-09-27T11:37:18.037Z,6.57
2018-09-27T11:43:22.682Z,6.23
2018-09-27T11:49:29.739Z,5.93
2018-09-27T11:55:33.267Z,6.37
2018-09-27T12:01:37.941Z,6.30
2018-09-27T12:07:43.467Z,5.90
2018-09-27T12:13:48.321Z,6.90
2018-09-27T12:19:52.913Z,6.50
2018-09-27T12:25:56.596Z,5.60
2018-09-27T12:32:00.523Z,4.87
2018-09-27T12:38:05.831Z,5.30
2018-09-27T12:44:09.467Z,4.60
2018-09-27T12:50:14.118Z,4.97
2018-09-27T12:56:18.153Z,4.30
2018-09-27T13:02:21.792Z,4.10
2018-09-27T13:08:26.240Z,3.60
2018-09-27T13:14:30.890Z,4.27
2018-09-27T13:20:34.596Z,4.20
2018-09-27T13:26:38.518Z,4.00
2018-09-27T13:32:43.799Z,5.00
2018-09-27T13:38:47.212Z,4.13
2018-09-27T13:44:50.798Z,4.33
2018-09-27T13:50:54.505Z,3.67
2018-09-27T13:56:58.025Z,4.08
2018-09-27T14:03:02.625Z,3.60
2018-09-27T14:09:09.233Z,3.65
2018-09-27T14:15:14.033Z,2.90
2018-09-27T14:21:17.719Z,2.52
2018-09-27T14:27:22.337Z,2.75
2018-09-27T14:33:26.351Z,2.37
2018-09-27T14:39:30.017Z,2.50
2018-09-27T14:45:33.916Z,2.77
2018-09-27T14:51:37.593Z,2.90
2018-09-27T14:57:40.968Z,3.10
2018-09-27T15:03:45.965Z,2.90
2018-09-27T15:09:51.881Z,3.85
2018-09-27T15:15:55.702Z,2.90
2018-09-27T15:22:13.057Z,3.60
2018-09-27T15:28:18.212Z,3.77
2018-09-27T15:34:22.347Z,3.60
2018-09-27T15:40:27.246Z,3.65
2018-09-27T15:46:32.245Z,4.10
2018-09-27T15:52:35.977Z,4.08
2018-09-27T15:58:39.829Z,4.30
2018-09-27T16:04:43.487Z,4.15
2018-09-27T16:10:46.949Z,3.90
2018-09-27T16:16:51.060Z,4.80
2018-09-27T16:22:54.537Z,5.50
2018-09-27T16:28:58.007Z,4.30
2018-09-27T16:35:01.413Z,4.80
2018-09-27T16:41:05.616Z,4.50
2018-09-27T16:47:09.012Z,4.70
2018-09-27T16:53:14.090Z,3.80
2018-09-27T16:59:18.132Z,3.53
2018-09-27T17:05:21.608Z,3.10
2018-09-27T17:11:26.406Z,3.77
2018-09-27T17:17:30.027Z,3.57
2018-09-27T17:23:34.560Z,3.10
2018-09-27T17:29:38.126Z,4.00
2018-09-27T17:35:41.634Z,3.23
2018-09-27T17:41:45.503Z,3.83
2018-09-27T17:47:48.990Z,3.40
2018-09-27T17:53:53.774Z,3.20
2018-09-27T17:59:57.284Z,3.47
2018-09-27T18:06:00.938Z,3.40
2018-09-27T18:12:04.692Z,4.00
2018-09-27T18:18:09.227Z,3.60
2018-09-27T18:24:13.026Z,4.27
2018-09-27T18:30:17.680Z,4.07
2018-09-27T18:36:21.392Z,3.63
2018-09-27T18:42:24.936Z,3.17
2018-09-27T18:48:29.880Z,4.00
2018-09-27T18:54:33.408Z,4.13
2018-09-27T19:00:38.542Z,3.50
2018-09-27T19:06:42.744Z,3.30
2018-09-27T19:12:47.154Z,4.10
2018-09-27T19:18:50.723Z,3.27
2018-09-27T19:24:54.430Z,2.73
2018-09-27T19:30:58.255Z,4.17
2018-09-27T19:37:01.998Z,5.00
2018-09-27T19:43:05.765Z,4.10
2018-09-27T19:49:10.710Z,3.40
2018-09-27T19:55:14.309Z,3.80
2018-09-27T20:01:18.110Z,4.00
2018-09-27T20:07:21.943Z,3.97
2018-09-27T20:13:29.926Z,3.67
2018-09-27T20:19:33.605Z,3.57
2018-09-27T20:25:38.142Z,3.60
2018-09-27T20:31:42.825Z,3.63
2018-09-27T20:37:46.518Z,4.33
2018-09-27T20:43:50.745Z,4.17
2018-09-27T20:49:56.365Z,4.13
2018-09-27T20:55:59.955Z,3.83
2018-09-27T21:02:03.698Z,4.10
2018-09-27T21:08:08.567Z,4.03
2018-09-27T21:14:12.336Z,3.97
2018-09-27T21:20:16.069Z,4.10
2018-09-27T21:26:19.533Z,4.47
2018-09-27T21:32:23.093Z,4.03
2018-09-27T21:38:27.104Z,4.10
2018-09-27T21:44:30.835Z,4.37
2018-09-27T21:50:34.280Z,4.13
2018-09-27T21:56:37.827Z,3.90
2018-09-27T22:02:41.247Z,4.00
2018-09-27T22:08:45.287Z,4.13
2018-09-27T22:14:48.921Z,4.60
2018-09-27T22:20:52.588Z,4.30
2018-09-27T22:26:55.946Z,4.97
2018-09-27T22:33:00.635Z,4.17
2018-09-27T22:39:05.521Z,4.80
2018-09-27T22:45:09.466Z,4.53
2018-09-27T22:51:12.812Z,6.50
2018-09-27T22:57:16.811Z,7.67
2018-09-27T23:03:21.175Z,6.60
2018-09-27T23:09:24.985Z,5.60
2018-09-27T23:15:28.631Z,5.30
2018-09-27T23:21:32.666Z,5.00
2018-09-27T23:27:36.702Z,4.80
2018-09-27T23:33:40.427Z,4.73
2018-09-27T23:39:44.266Z,4.87
2018-09-27T23:45:48.543Z,5.20
2018-09-27T23:51:51.891Z,4.83
2018-09-27T23:57:56.458Z,5.17
